Time;durP1;ratioP1;P1;durP2;ratioP2;P2;SDS_P1;SDS_P2;PMS_P1;PMS_P2;Temp;Humidity;BMP_temperature;BMP_pressure;BME280_temperature;BME280_humidity;BME280_pressure;Samples;Min_cycle;Max_cycle;Signal;HPM_P1;HPM_P2
2022/12/14 00:01:25;;;;;;;30.60;11.18;;;-3.50;99.90;;;;;;5001352;28;20144;-62
2022/12/14 00:03:51;;;;;;;27.25;11.23;;;-3.50;99.90;;;;;;4994373;28;20491;-63
2022/12/14 00:06:18;;;;;;;31.35;11.98;;;-3.50;99.90;;;;;;5006733;28;20480;-64
2022/12/14 00:08:45;;;;;;;28.13;10.98;;;-3.40;99.90;;;;;;5008888;28;20536;-63
2022/12/14 00:11:13;;;;;;;30.48;11.23;;;-3.50;99.90;;;;;;5010238;28;20750;-64
2022/12/14 00:13:39;;;;;;;37.63;12.13;;;-3.50;99.90;;;;;;5004648;28;20050;-64
2022/12/14 00:16:16;;;;;;;30.42;11.60;;;-3.50;99.90;;;;;;5007749;28;20785;-62
2022/12/14 00:18:43;;;;;;;29.58;11.50;;;-3.40;99.90;;;;;;5000488;28;20239;-65
2022/12/14 00:21:12;;;;;;;32.92;11.32;;;-3.40;99.90;;;;;;5011063;28;20475;-64
2022/12/14 00:23:40;;;;;;;30.63;10.80;;;-3.40;99.90;;;;;;5000762;28;20059;-64
2022/12/14 00:26:16;;;;;;;31.35;11.68;;;-3.40;99.90;;;;;;4990866;28;20490;-63
2022/12/14 00:28:43;;;;;;;31.95;11.93;;;-3.40;99.90;;;;;;5010284;28;20037;-64
2022/12/14 00:31:09;;;;;;;31.02;11.23;;;-3.50;99.90;;;;;;5022340;28;20129;-65
2022/12/14 00:33:36;;;;;;;32.22;12.50;;;-3.40;99.90;;;;;;5011230;28;20032;-63
2022/12/14 00:36:03;;;;;;;30.83;11.20;;;-3.40;99.90;;;;;;5009171;28;20045;-63
2022/12/14 00:38:29;;;;;;;37.15;11.88;;;-3.40;99.90;;;;;;5011147;28;20034;-64
2022/12/14 00:40:55;;;;;;;32.95;12.10;;;-3.50;99.90;;;;;;5001042;28;20364;-62
2022/12/14 00:43:23;;;;;;;30.58;11.82;;;-3.40;99.90;;;;;;5011087;28;20026;-64
2022/12/14 00:45:49;;;;;;;32.90;11.43;;;-3.40;99.90;;;;;;5008569;28;20038;-65
2022/12/14 00:48:18;;;;;;;35.22;11.95;;;-3.40;99.90;;;;;;5007601;28;20731;-64
2022/12/14 00:50:45;;;;;;;47.65;15.25;;;-3.30;99.90;;;;;;5005536;28;20038;-64
2022/12/14 00:53:11;;;;;;;30.17;11.30;;;-3.30;99.90;;;;;;5008009;28;20026;-63
2022/12/14 00:55:38;;;;;;;42.35;15.85;;;-3.30;99.90;;;;;;5009255;28;20087;-64
2022/12/14 00:58:04;;;;;;;31.70;11.43;;;-3.20;99.90;;;;;;5009876;28;20034;-64
2022/12/14 01:00:30;;;;;;;29.85;11.43;;;-3.20;99.90;;;;;;5008377;28;20041;-64
2022/12/14 01:02:56;;;;;;;31.73;11.55;;;-3.20;99.90;;;;;;4997759;28;20399;-62
2022/12/14 01:05:21;;;;;;;32.20;11.95;;;-3.30;99.90;;;;;;5004089;28;20033;-64
2022/12/14 01:07:47;;;;;;;32.85;11.07;;;-3.30;99.90;;;;;;5007950;28;20125;-64
2022/12/14 01:10:12;;;;;;;32.80;12.00;;;-3.30;99.90;;;;;;5020098;28;20034;-64
2022/12/14 01:12:38;;;;;;;30.92;11.48;;;-3.30;99.90;;;;;;5011375;28;20045;-63
2022/12/14 01:15:04;;;;;;;35.00;12.32;;;-3.30;99.90;;;;;;4990032;28;20046;-63
2022/12/14 01:17:30;;;;;;;37.78;12.88;;;-3.30;99.90;;;;;;4997144;28;20040;-63
2022/12/14 01:19:55;;;;;;;33.88;12.25;;;-3.30;99.90;;;;;;5007645;28;20108;-64
2022/12/14 01:22:21;;;;;;;30.05;11.48;;;-3.30;99.90;;;;;;5013250;28;20380;-64
2022/12/14 01:24:46;;;;;;;32.22;11.68;;;-3.30;99.90;;;;;;5010298;28;20049;-64
2022/12/14 01:27:12;;;;;;;38.63;12.13;;;-3.30;99.90;;;;;;5002330;28;20034;-64
2022/12/14 01:29:38;;;;;;;35.25;12.63;;;-3.30;99.90;;;;;;4991263;28;20031;-63
2022/12/14 01:32:04;;;;;;;36.85;13.13;;;-3.30;99.90;;;;;;4989675;28;20034;-64
2022/12/14 01:34:31;;;;;;;36.28;12.70;;;-3.30;99.90;;;;;;4993447;28;20081;-64
2022/12/14 01:36:57;;;;;;;32.60;12.18;;;-3.30;99.90;;;;;;5009664;28;20119;-64
2022/12/14 01:39:22;;;;;;;32.75;13.00;;;-3.20;99.90;;;;;;5008773;28;20045;-64
2022/12/14 01:41:51;;;;;;;37.03;13.68;;;-3.30;99.90;;;;;;5009752;28;20466;-65
2022/12/14 01:44:17;;;;;;;34.38;13.20;;;-3.30;99.90;;;;;;5007544;28;20053;-62
2022/12/14 01:46:49;;;;;;;34.78;13.10;;;-3.30;99.90;;;;;;4990403;28;20042;-64
2022/12/14 01:49:38;;;;;;;32.15;12.65;;;-3.30;99.90;;;;;;4995008;28;20030;-65
2022/12/14 01:52:19;;;;;;;35.83;13.10;;;-3.30;99.90;;;;;;5008769;28;20054;-63
2022/12/14 01:55:06;;;;;;;34.10;12.45;;;-3.20;99.90;;;;;;5004926;28;20068;-63
2022/12/14 01:57:41;;;;;;;35.03;12.25;;;-3.20;99.90;;;;;;4996194;28;20045;-64
2022/12/14 02:00:08;;;;;;;32.10;12.40;;;-3.20;99.90;;;;;;5010602;28;20041;-63
2022/12/14 02:02:36;;;;;;;34.70;13.00;;;-3.20;99.90;;;;;;5016463;28;20065;-64
2022/12/14 02:05:05;;;;;;;33.08;12.52;;;-3.10;99.90;;;;;;5007264;28;20096;-63
2022/12/14 02:07:31;;;;;;;33.35;12.40;;;-3.10;99.90;;;;;;5006523;28;21838;-63
2022/12/14 02:10:01;;;;;;;42.00;14.18;;;-3.20;99.90;;;;;;5001206;28;20109;-64
2022/12/14 02:12:35;;;;;;;35.17;13.00;;;-3.20;99.90;;;;;;4988825;28;20694;-63
2022/12/14 02:15:02;;;;;;;37.65;13.60;;;-3.10;99.90;;;;;;5007868;28;20407;-64
2022/12/14 02:17:28;;;;;;;34.60;12.82;;;-3.20;99.90;;;;;;4997871;28;20035;-63
2022/12/14 02:19:56;;;;;;;35.03;13.65;;;-3.20;99.90;;;;;;5007436;28;20045;-64
2022/12/14 02:22:40;;;;;;;37.13;13.85;;;-3.20;99.90;;;;;;4991902;28;20519;-64
2022/12/14 02:25:24;;;;;;;40.63;14.65;;;-3.20;99.90;;;;;;5006782;28;20038;-63
2022/12/14 02:28:48;;;;;;;40.88;14.07;;;-3.20;99.90;;;;;;5008615;28;20045;-64
2022/12/14 02:31:29;;;;;;;35.53;13.95;;;-3.20;99.90;;;;;;5002229;28;20030;-63
2022/12/14 02:33:59;;;;;;;38.97;14.35;;;-3.20;99.90;;;;;;4988771;28;20048;-64
2022/12/14 02:36:57;;;;;;;41.78;14.10;;;-3.20;99.90;;;;;;5004638;28;20041;-66
2022/12/14 02:39:33;;;;;;;37.70;13.98;;;-3.20;99.90;;;;;;4979335;28;20785;-64
2022/12/14 02:42:12;;;;;;;42.63;14.77;;;-3.20;99.90;;;;;;5002525;28;20482;-63
2022/12/14 02:44:53;;;;;;;40.03;14.32;;;-3.20;99.90;;;;;;4991634;28;20042;-64
2022/12/14 02:47:27;;;;;;;39.15;14.02;;;-3.20;99.90;;;;;;5008403;28;20116;-64
2022/12/14 02:50:21;;;;;;;37.75;14.60;;;-3.20;99.90;;;;;;4999283;28;20037;-65
2022/12/14 02:52:57;;;;;;;38.83;14.93;;;-3.20;99.90;;;;;;5010941;28;20053;-64
2022/12/14 02:55:31;;;;;;;38.53;14.68;;;-3.20;99.90;;;;;;5007814;28;20042;-64
2022/12/14 02:58:04;;;;;;;39.85;14.75;;;-3.10;99.90;;;;;;5005051;28;20058;-65
2022/12/14 03:00:33;;;;;;;36.35;14.30;;;-3.10;99.90;;;;;;5006309;28;20105;-63
2022/12/14 03:02:59;;;;;;;42.25;14.25;;;-3.10;99.90;;;;;;4992435;28;20468;-63
2022/12/14 03:05:25;;;;;;;39.38;15.18;;;-3.20;99.90;;;;;;5005349;28;20031;-64
2022/12/14 03:07:58;;;;;;;41.65;14.80;;;-3.10;99.90;;;;;;5005847;28;20048;-63
2022/12/14 03:10:38;;;;;;;41.35;15.27;;;-3.20;99.90;;;;;;5005672;28;20462;-63
2022/12/14 03:13:31;;;;;;;35.60;13.07;;;-3.20;99.90;;;;;;5005218;28;20187;-64
2022/12/14 03:16:04;;;;;;;44.53;15.88;;;-3.20;99.90;;;;;;4992503;28;20037;-65
2022/12/14 03:18:36;;;;;;;45.38;15.48;;;-3.20;99.90;;;;;;4989464;28;20365;-66
2022/12/14 03:21:05;;;;;;;41.72;15.82;;;-3.10;99.90;;;;;;5008407;28;20031;-64
2022/12/14 03:23:35;;;;;;;44.30;15.43;;;-3.20;99.90;;;;;;4988768;28;20046;-64
2022/12/14 03:26:17;;;;;;;40.60;15.52;;;-3.20;99.90;;;;;;5004564;28;20041;-64
2022/12/14 03:28:50;;;;;;;40.42;14.85;;;-3.10;99.90;;;;;;5008756;28;20149;-63
2022/12/14 03:31:46;;;;;;;43.65;15.98;;;-3.20;99.90;;;;;;5001033;28;20041;-64
2022/12/14 03:34:14;;;;;;;45.25;16.70;;;-3.20;99.90;;;;;;4989465;28;20044;-64
2022/12/14 03:36:49;;;;;;;42.65;15.90;;;-3.20;99.90;;;;;;5008196;28;20080;-64
2022/12/14 03:39:27;;;;;;;46.58;16.70;;;-3.20;99.90;;;;;;5009320;28;20041;-64
2022/12/14 03:42:11;;;;;;;47.40;17.02;;;-3.20;99.90;;;;;;5009319;28;20042;-64
2022/12/14 03:44:56;;;;;;;47.10;16.33;;;-3.20;99.90;;;;;;5006275;28;20022;-64
2022/12/14 03:47:46;;;;;;;45.90;17.00;;;-3.30;99.90;;;;;;4993545;28;20034;-65
2022/12/14 03:50:38;;;;;;;34.13;12.35;;;-3.20;99.90;;;;;;4991807;28;20034;-63
2022/12/14 03:53:25;;;;;;;45.75;16.98;;;-3.20;99.90;;;;;;4998029;28;20046;-64
2022/12/14 03:55:53;;;;;;;40.90;15.80;;;-3.20;99.90;;;;;;5012804;28;20036;-63
2022/12/14 03:58:43;;;;;;;46.05;17.95;;;-3.20;99.90;;;;;;5010890;28;20037;-62
2022/12/14 04:01:42;;;;;;;44.95;16.80;;;-3.20;99.90;;;;;;5011384;28;20550;-64
2022/12/14 04:04:11;;;;;;;50.35;18.10;;;-3.20;99.90;;;;;;4985904;28;21650;-64
2022/12/14 04:06:58;;;;;;;56.63;18.30;;;-3.20;99.90;;;;;;5006688;28;20454;-64
2022/12/14 04:09:36;;;;;;;49.30;16.58;;;-3.20;99.90;;;;;;5003971;28;20041;-64
2022/12/14 04:20:56;;;;;;;44.03;17.05;;;-3.10;99.90;;;;;;5031413;28;20065;-62
2022/12/14 04:26:30;;;;;;;52.20;17.77;;;-3.10;99.90;;;;;;5020116;28;20124;-63
2022/12/14 04:31:55;;;;;;;57.58;20.10;;;-3.00;99.90;;;;;;5029709;28;20131;-63
2022/12/14 04:34:24;;;;;;;49.15;18.48;;;-3.00;99.90;;;;;;5029209;28;20037;-63
2022/12/14 04:36:57;;;;;;;46.05;17.02;;;-3.00;99.90;;;;;;5025985;28;20034;-64
2022/12/14 04:39:50;;;;;;;45.40;17.38;;;-3.00;99.90;;;;;;5008463;28;20117;-64
2022/12/14 04:42:18;;;;;;;47.30;17.10;;;-3.10;99.90;;;;;;5003695;28;20046;-64
2022/12/14 04:44:59;;;;;;;45.92;16.35;;;-3.10;99.90;;;;;;5009866;28;20033;-64
2022/12/14 04:47:31;;;;;;;50.50;18.15;;;-3.10;99.90;;;;;;5008491;28;20041;-64
2022/12/14 04:50:12;;;;;;;50.65;18.88;;;-3.00;99.90;;;;;;5002685;28;20038;-64
2022/12/14 04:52:44;;;;;;;50.58;17.90;;;-3.10;99.90;;;;;;5009701;28;20046;-64
2022/12/14 04:55:24;;;;;;;49.85;18.05;;;-3.10;99.90;;;;;;5005242;28;20038;-64
2022/12/14 04:58:15;;;;;;;48.58;17.48;;;-3.10;99.90;;;;;;5003139;28;20103;-64
2022/12/14 05:01:21;;;;;;;52.28;18.45;;;-3.10;99.90;;;;;;4996408;28;20030;-64
2022/12/14 05:04:04;;;;;;;50.72;18.42;;;-3.10;99.90;;;;;;4994563;28;20076;-64
2022/12/14 05:07:05;;;;;;;53.25;17.83;;;-3.00;99.90;;;;;;5000758;28;20036;-64
2022/12/14 05:09:33;;;;;;;56.25;19.38;;;-3.00;99.90;;;;;;5000869;28;20550;-63
2022/12/14 05:12:16;;;;;;;54.97;19.13;;;-3.00;99.90;;;;;;5007145;28;20109;-63
2022/12/14 05:15:06;;;;;;;51.38;18.80;;;-3.00;99.90;;;;;;5008801;28;20116;-63
2022/12/14 05:17:37;;;;;;;55.10;19.02;;;-3.00;99.90;;;;;;5013401;28;20386;-64
2022/12/14 05:20:04;;;;;;;51.83;18.67;;;-3.00;99.90;;;;;;5002265;28;20451;-65
2022/12/14 05:22:30;;;;;;;56.03;20.15;;;-3.00;99.90;;;;;;4993464;28;20042;-63
2022/12/14 05:24:55;;;;;;;56.78;19.95;;;-3.00;99.90;;;;;;5008342;28;20088;-64
2022/12/14 05:27:21;;;;;;;55.40;20.00;;;-3.00;99.90;;;;;;4997274;28;20025;-63
2022/12/14 05:29:46;;;;;;;53.67;19.83;;;-3.00;99.90;;;;;;5006281;28;20122;-63
2022/12/14 05:32:12;;;;;;;49.92;19.17;;;-3.00;99.90;;;;;;5004724;28;20034;-63
2022/12/14 05:34:38;;;;;;;54.30;19.50;;;-3.00;99.90;;;;;;5007060;28;20034;-63
2022/12/14 05:37:04;;;;;;;58.40;19.98;;;-3.00;99.90;;;;;;5000052;28;20026;-64
2022/12/14 05:39:30;;;;;;;58.83;20.92;;;-2.90;99.90;;;;;;5007811;28;20030;-63
2022/12/14 05:41:55;;;;;;;54.78;19.58;;;-2.90;99.90;;;;;;5007897;28;20110;-64
2022/12/14 05:44:21;;;;;;;63.90;20.98;;;-2.90;99.90;;;;;;5001368;28;20029;-63
2022/12/14 05:46:47;;;;;;;53.33;19.63;;;-2.90;99.90;;;;;;5003311;28;20630;-63
2022/12/14 05:49:13;;;;;;;60.50;20.77;;;-3.00;99.90;;;;;;5014737;28;20065;-61
2022/12/14 05:51:38;;;;;;;55.50;20.48;;;-3.00;99.90;;;;;;5008130;28;20521;-63
2022/12/14 05:54:04;;;;;;;52.85;18.75;;;-3.00;99.90;;;;;;5009310;28;20098;-63
2022/12/14 05:56:30;;;;;;;59.42;21.20;;;-3.00;99.90;;;;;;5011142;28;20028;-64
2022/12/14 05:58:56;;;;;;;71.97;24.73;;;-3.00;99.90;;;;;;5009454;28;20250;-63
2022/12/14 06:01:22;;;;;;;70.20;23.98;;;-3.00;99.90;;;;;;5006658;28;20618;-63
2022/12/14 06:03:51;;;;;;;61.25;22.92;;;-3.00;99.90;;;;;;5009085;28;20165;-64
2022/12/14 06:06:17;;;;;;;59.17;20.70;;;-2.90;99.90;;;;;;5006063;28;20079;-63
2022/12/14 06:08:45;;;;;;;58.83;20.13;;;-2.90;99.90;;;;;;5007123;28;20133;-64
2022/12/14 06:11:21;;;;;;;58.22;20.60;;;-2.90;99.90;;;;;;5007406;28;20446;-64
2022/12/14 06:13:48;;;;;;;60.42;20.33;;;-2.90;99.90;;;;;;5007944;28;20053;-64
2022/12/14 06:16:25;;;;;;;57.97;21.20;;;-3.00;99.90;;;;;;5006929;28;20034;-65
2022/12/14 06:18:55;;;;;;;57.40;20.52;;;-2.90;99.90;;;;;;5000138;28;20033;-63
2022/12/14 06:21:24;;;;;;;60.70;20.27;;;-2.90;99.90;;;;;;5008063;28;20442;-65
2022/12/14 06:23:50;;;;;;;58.13;21.25;;;-2.90;99.90;;;;;;5005835;28;20053;-64
2022/12/14 06:26:17;;;;;;;60.05;20.67;;;-2.90;99.90;;;;;;5009022;28;20036;-64
2022/12/14 06:28:43;;;;;;;54.97;20.23;;;-2.90;99.90;;;;;;5003304;28;20034;-64
2022/12/14 06:31:17;;;;;;;59.47;21.15;;;-2.90;99.90;;;;;;4999115;28;20049;-63
2022/12/14 06:33:43;;;;;;;59.00;22.17;;;-2.90;99.90;;;;;;5005313;28;20030;-64
2022/12/14 06:36:29;;;;;;;59.03;20.67;;;-3.00;99.90;;;;;;5010347;28;20038;-64
2022/12/14 06:38:56;;;;;;;59.03;21.48;;;-3.00;99.90;;;;;;5004946;28;20601;-64
2022/12/14 06:41:23;;;;;;;60.25;21.10;;;-3.00;99.90;;;;;;5008799;28;20478;-63
2022/12/14 06:43:49;;;;;;;58.17;21.05;;;-3.00;99.90;;;;;;5006842;28;20062;-63
2022/12/14 06:46:17;;;;;;;61.88;22.25;;;-2.90;99.90;;;;;;5020907;28;20406;-64
2022/12/14 06:48:42;;;;;;;67.43;22.77;;;-2.90;99.90;;;;;;4999225;28;20019;-64
2022/12/14 06:51:08;;;;;;;57.22;21.30;;;-2.90;99.90;;;;;;5005999;28;20081;-65
2022/12/14 06:53:35;;;;;;;66.05;22.85;;;-2.90;99.90;;;;;;5005983;28;20550;-64
2022/12/14 06:56:12;;;;;;;60.92;22.05;;;-2.90;99.90;;;;;;5007360;28;20117;-64
2022/12/14 06:58:38;;;;;;;66.78;23.08;;;-2.80;99.90;;;;;;5006983;28;20097;-65
2022/12/14 07:01:07;;;;;;;56.90;21.30;;;-2.80;99.90;;;;;;4991859;28;20037;-64
2022/12/14 07:03:33;;;;;;;58.17;20.60;;;-2.80;99.90;;;;;;5000905;28;20026;-63
2022/12/14 07:06:00;;;;;;;61.50;21.42;;;-2.80;99.90;;;;;;4992418;28;20069;-63
2022/12/14 07:08:28;;;;;;;74.00;27.45;;;-2.70;99.90;;;;;;5001648;28;20503;-64
2022/12/14 07:10:53;;;;;;;71.63;24.30;;;-2.70;99.90;;;;;;5006253;28;20030;-63
2022/12/14 07:13:20;;;;;;;67.20;22.88;;;-2.70;99.90;;;;;;4990343;28;20081;-64
2022/12/14 07:15:52;;;;;;;64.10;22.90;;;-2.70;99.90;;;;;;5007382;28;20026;-64
2022/12/14 07:18:19;;;;;;;62.80;22.27;;;-2.70;99.90;;;;;;4997836;28;20112;-62
2022/12/14 07:20:59;;;;;;;59.63;21.42;;;-2.70;99.90;;;;;;5024374;28;20484;-65
2022/12/14 07:23:26;;;;;;;64.25;23.27;;;-2.70;99.90;;;;;;4998733;28;20242;-64
2022/12/14 07:25:52;;;;;;;64.00;22.08;;;-2.70;99.90;;;;;;5008569;28;20052;-65
2022/12/14 07:28:19;;;;;;;80.53;26.55;;;-2.70;99.90;;;;;;5029183;28;20026;-65
2022/12/14 07:30:45;;;;;;;68.38;23.83;;;-2.70;99.90;;;;;;5011441;28;20398;-64
2022/12/14 07:33:10;;;;;;;68.88;24.27;;;-2.60;99.90;;;;;;5006664;28;20034;-64
2022/12/14 07:35:36;;;;;;;73.55;26.05;;;-2.70;99.90;;;;;;5009792;28;20112;-63
2022/12/14 07:38:02;;;;;;;67.53;23.40;;;-2.70;99.90;;;;;;5009877;28;20025;-64
2022/12/14 07:40:32;;;;;;;66.57;24.30;;;-2.80;99.90;;;;;;5011237;28;20598;-64
2022/12/14 07:42:58;;;;;;;91.13;28.67;;;-2.80;99.90;;;;;;5010867;28;20458;-62
2022/12/14 07:45:24;;;;;;;69.78;24.92;;;-2.80;99.90;;;;;;5020273;28;20042;-64
2022/12/14 07:47:50;;;;;;;72.13;25.08;;;-2.90;99.90;;;;;;5020984;28;20042;-64
2022/12/14 07:50:16;;;;;;;73.82;24.23;;;-2.90;99.90;;;;;;5007763;28;20028;-64
2022/12/14 07:52:41;;;;;;;75.00;24.42;;;-2.90;99.90;;;;;;5002370;28;20092;-66
2022/12/14 07:55:07;;;;;;;70.05;25.25;;;-2.90;99.90;;;;;;5011061;28;20073;-64
2022/12/14 07:57:33;;;;;;;70.10;24.27;;;-2.90;99.90;;;;;;5000524;28;20037;-65
2022/12/14 07:59:59;;;;;;;69.30;23.85;;;-2.90;99.90;;;;;;5009380;28;20084;-64
2022/12/14 08:02:24;;;;;;;73.53;25.08;;;-2.90;99.90;;;;;;5009095;28;20030;-65
2022/12/14 08:04:50;;;;;;;91.50;28.50;;;-2.80;99.90;;;;;;5004659;28;20066;-63
2022/12/14 08:07:16;;;;;;;71.47;24.90;;;-2.90;99.90;;;;;;4991139;28;20031;-64
2022/12/14 08:09:41;;;;;;;76.07;24.33;;;-2.80;99.90;;;;;;5011419;28;20479;-63
2022/12/14 08:12:08;;;;;;;67.30;23.80;;;-2.80;99.90;;;;;;5011628;28;20088;-65
2022/12/14 08:14:33;;;;;;;74.55;25.77;;;-2.80;99.90;;;;;;5007046;28;20030;-64
2022/12/14 08:16:59;;;;;;;75.75;25.17;;;-2.80;99.90;;;;;;5009732;28;20546;-63
2022/12/14 08:19:25;;;;;;;78.10;28.52;;;-2.70;99.90;;;;;;5010407;28;20038;-63
2022/12/14 08:21:50;;;;;;;77.95;25.73;;;-2.70;99.90;;;;;;4996921;28;20030;-65
2022/12/14 08:24:16;;;;;;;65.50;24.52;;;-2.60;99.90;;;;;;5003661;28;20414;-64
2022/12/14 08:26:42;;;;;;;72.28;25.48;;;-2.50;99.90;;;;;;5009838;28;20471;-66
2022/12/14 08:29:08;;;;;;;74.95;25.15;;;-2.50;99.90;;;;;;5009234;28;20103;-66
2022/12/14 08:31:34;;;;;;;72.15;25.05;;;-2.50;99.90;;;;;;5006866;28;20038;-64
2022/12/14 08:34:00;;;;;;;71.03;24.23;;;-2.50;99.90;;;;;;5001920;28;20042;-66
2022/12/14 08:36:32;;;;;;;64.97;22.92;;;-2.50;99.90;;;;;;4990822;28;20400;-64
2022/12/14 08:39:00;;;;;;;73.85;25.15;;;-2.50;99.90;;;;;;4991864;28;20831;-65
2022/12/14 08:41:27;;;;;;;70.80;24.83;;;-2.50;99.90;;;;;;4990799;28;20034;-65
2022/12/14 08:43:55;;;;;;;75.45;25.42;;;-2.40;99.90;;;;;;5006425;28;20029;-63
2022/12/14 08:46:22;;;;;;;72.43;24.35;;;-2.40;99.90;;;;;;4993912;28;20113;-64
2022/12/14 08:48:49;;;;;;;77.43;25.95;;;-2.40;99.90;;;;;;4993896;28;20109;-65
2022/12/14 08:51:16;;;;;;;80.68;29.27;;;-2.30;99.90;;;;;;4990271;28;20073;-65
2022/12/14 08:53:42;;;;;;;69.85;25.52;;;-2.20;99.90;;;;;;4999674;28;20065;-65
2022/12/14 08:56:10;;;;;;;78.88;26.05;;;-2.20;99.90;;;;;;5009143;28;20058;-63
2022/12/14 08:58:38;;;;;;;84.32;28.55;;;-2.20;99.90;;;;;;5009461;28;20029;-65
2022/12/14 09:01:12;;;;;;;77.88;26.67;;;-2.10;99.90;;;;;;5007157;28;20073;-64
2022/12/14 09:03:39;;;;;;;110.47;37.92;;;-2.10;99.90;;;;;;5007770;28;20026;-63
2022/12/14 09:06:07;;;;;;;86.32;32.05;;;-2.10;99.90;;;;;;5009105;28;20041;-65
2022/12/14 09:08:33;;;;;;;108.38;35.90;;;-2.10;99.90;;;;;;5009701;28;20038;-63
2022/12/14 09:11:00;;;;;;;82.90;27.83;;;-2.00;99.90;;;;;;4992777;28;20038;-64
2022/12/14 09:13:27;;;;;;;78.78;26.33;;;-2.00;99.90;;;;;;5001497;28;20061;-66
2022/12/14 09:15:57;;;;;;;81.22;26.80;;;-2.00;99.90;;;;;;5008060;28;20033;-65
2022/12/14 09:18:23;;;;;;;79.00;26.85;;;-1.80;99.90;;;;;;5007379;28;20394;-65
2022/12/14 09:20:53;;;;;;;71.30;24.58;;;-1.70;99.90;;;;;;4998631;28;20037;-65
2022/12/14 09:23:19;;;;;;;83.90;27.85;;;-1.70;99.90;;;;;;5003585;28;20045;-65
2022/12/14 09:25:45;;;;;;;73.82;25.40;;;-1.70;99.90;;;;;;5007516;28;20041;-66
2022/12/14 09:28:10;;;;;;;69.95;25.60;;;-1.70;99.90;;;;;;5008834;28;20368;-65
2022/12/14 09:30:36;;;;;;;71.70;24.63;;;-1.70;99.90;;;;;;5010288;28;20034;-65
2022/12/14 09:33:02;;;;;;;73.63;25.75;;;-1.70;99.90;;;;;;5009056;28;20041;-65
2022/12/14 09:35:27;;;;;;;79.57;26.83;;;-1.70;99.90;;;;;;5008922;28;20144;-67
2022/12/14 09:37:53;;;;;;;72.88;25.45;;;-1.70;99.90;;;;;;5005517;28;20133;-64
2022/12/14 09:40:23;;;;;;;73.72;26.20;;;-1.80;99.90;;;;;;4999525;28;20825;-64
2022/12/14 09:43:04;;;;;;;73.25;26.02;;;-1.70;99.90;;;;;;5029684;28;20092;-64
2022/12/14 09:45:43;;;;;;;78.80;26.83;;;-1.70;99.90;;;;;;4999508;28;20057;-64
2022/12/14 09:48:13;;;;;;;87.93;26.23;;;-1.70;99.90;;;;;;5007789;28;20033;-63
2022/12/14 09:50:39;;;;;;;74.13;26.42;;;-1.60;99.90;;;;;;5004371;28;20046;-65
2022/12/14 09:53:10;;;;;;;71.03;26.67;;;-1.60;99.90;;;;;;4990213;28;20447;-65
2022/12/14 09:55:49;;;;;;;68.22;23.67;;;-1.50;99.90;;;;;;4999093;28;20091;-64
2022/12/14 09:58:26;;;;;;;66.85;24.60;;;-1.50;99.90;;;;;;5006625;28;20402;-69
2022/12/14 10:01:26;;;;;;;64.18;23.48;;;-1.50;99.90;;;;;;5008252;28;20037;-65
2022/12/14 10:04:15;;;;;;;60.30;22.37;;;-1.50;99.90;;;;;;4953287;28;20105;-65
2022/12/14 10:07:04;;;;;;;69.15;25.83;;;-1.40;99.90;;;;;;5008453;28;20538;-65
2022/12/14 10:10:01;;;;;;;63.47;24.02;;;-1.40;99.90;;;;;;5007268;28;20038;-66
2022/12/14 10:12:34;;;;;;;69.13;25.67;;;-1.40;99.90;;;;;;5000653;28;20042;-63
2022/12/14 10:15:20;;;;;;;76.60;25.70;;;-1.40;99.90;;;;;;4994895;28;20029;-65
2022/12/14 10:18:02;;;;;;;68.40;25.63;;;-1.30;99.90;;;;;;5007388;28;20040;-63
2022/12/14 10:21:01;;;;;;;75.53;27.08;;;-1.40;99.90;;;;;;5008167;28;20120;-66
2022/12/14 10:23:27;;;;;;;71.90;25.30;;;-1.30;99.90;;;;;;4998606;28;20054;-65
2022/12/14 10:26:02;;;;;;;66.03;24.95;;;-1.30;99.90;;;;;;4990239;28;20465;-65
2022/12/14 10:28:54;;;;;;;69.35;24.48;;;-1.30;99.90;;;;;;5006861;28;20367;-64
2022/12/14 10:31:45;;;;;;;74.80;26.23;;;-1.30;99.90;;;;;;5004952;28;20042;-68
2022/12/14 10:34:18;;;;;;;81.72;27.33;;;-1.30;99.90;;;;;;5002791;28;20494;-64
2022/12/14 10:37:14;;;;;;;65.78;24.52;;;-1.30;99.90;;;;;;5006574;28;20038;-64
2022/12/14 10:39:50;;;;;;;71.13;25.52;;;-1.30;99.90;;;;;;5015025;28;20030;-65
2022/12/14 10:42:25;;;;;;;81.32;27.60;;;-1.30;99.90;;;;;;5006947;28;20506;-65
2022/12/14 10:45:09;;;;;;;72.47;25.63;;;-1.20;99.90;;;;;;5005242;28;20029;-64
2022/12/14 10:47:45;;;;;;;74.20;27.15;;;-1.20;99.90;;;;;;5003290;28;20041;-65
2022/12/14 10:50:48;;;;;;;72.82;27.73;;;-1.20;99.90;;;;;;5008632;28;20057;-66
2022/12/14 10:53:21;;;;;;;83.38;27.80;;;-1.30;99.90;;;;;;5005092;28;20186;-64
2022/12/14 10:55:50;;;;;;;74.20;27.55;;;-1.20;99.90;;;;;;5007804;28;20037;-66
2022/12/14 10:58:15;;;;;;;77.15;26.92;;;-1.30;99.90;;;;;;5007422;28;20026;-62
2022/12/14 11:00:41;;;;;;;77.50;28.58;;;-1.30;99.90;;;;;;5003256;28;20026;-64
2022/12/14 11:03:13;;;;;;;84.18;30.25;;;-1.30;99.90;;;;;;5007068;28;20071;-65
2022/12/14 11:06:06;;;;;;;82.85;30.45;;;-1.30;99.90;;;;;;5006578;28;20117;-63
2022/12/14 11:08:46;;;;;;;87.93;28.40;;;-1.20;99.90;;;;;;5007058;28;20113;-66
2022/12/14 11:11:22;;;;;;;89.50;29.63;;;-1.30;99.90;;;;;;5004888;28;20065;-65
2022/12/14 11:13:50;;;;;;;83.63;28.58;;;-1.30;99.90;;;;;;5007783;28;20041;-65
2022/12/14 11:16:36;;;;;;;86.45;30.13;;;-1.30;99.90;;;;;;5007350;28;20034;-64
2022/12/14 11:19:03;;;;;;;76.78;26.85;;;-1.20;99.90;;;;;;5007419;28;20033;-65
2022/12/14 11:21:33;;;;;;;84.00;28.08;;;-1.20;99.90;;;;;;5005611;28;20033;-67
2022/12/14 11:23:58;;;;;;;78.95;29.17;;;-1.20;99.90;;;;;;5008260;28;20081;-65
2022/12/14 11:26:39;;;;;;;83.05;28.90;;;-1.20;99.90;;;;;;5005162;28;20034;-64
2022/12/14 11:29:46;;;;;;;73.30;26.83;;;-1.20;99.90;;;;;;4999634;28;20387;-66
2022/12/14 11:32:19;;;;;;;73.80;27.40;;;-1.10;99.90;;;;;;4943052;29;20046;-63
2022/12/14 11:34:56;;;;;;;76.85;26.40;;;-1.10;99.90;;;;;;4943248;29;20239;-66
2022/12/14 11:37:28;;;;;;;74.72;27.92;;;-1.00;99.90;;;;;;4930909;29;20098;-67
2022/12/14 11:39:59;;;;;;;74.28;27.05;;;-1.00;99.90;;;;;;4944108;29;20047;-65
2022/12/14 11:42:26;;;;;;;78.63;27.42;;;-1.00;99.90;;;;;;4945483;29;20073;-66
2022/12/14 11:44:53;;;;;;;83.63;29.77;;;-1.00;99.90;;;;;;4919345;29;20035;-63
2022/12/14 11:47:22;;;;;;;76.38;29.65;;;-0.90;99.90;;;;;;4947019;29;20031;-65
2022/12/14 11:49:50;;;;;;;78.20;28.00;;;-0.90;99.90;;;;;;4946238;29;20118;-65
2022/12/14 11:52:24;;;;;;;79.07;27.65;;;-1.00;99.90;;;;;;4951480;28;20043;-64
2022/12/14 11:54:55;;;;;;;79.75;27.17;;;-0.90;99.90;;;;;;4947456;29;20083;-64
2022/12/14 11:57:47;;;;;;;94.20;33.08;;;-1.00;99.90;;;;;;4940239;29;20516;-65
2022/12/14 12:00:20;;;;;;;76.30;29.65;;;-1.00;99.90;;;;;;4942558;28;20043;-66
2022/12/14 12:02:53;;;;;;;90.05;33.13;;;-1.00;99.90;;;;;;4969242;28;20651;-64
2022/12/14 12:05:21;;;;;;;92.75;34.70;;;-1.00;99.90;;;;;;5010883;28;20049;-64
2022/12/14 12:07:53;;;;;;;90.80;33.78;;;-1.00;99.90;;;;;;5010240;28;20503;-63
2022/12/14 12:10:22;;;;;;;88.05;31.90;;;-0.90;99.90;;;;;;5010645;28;20040;-64
2022/12/14 12:13:01;;;;;;;80.50;29.13;;;-0.90;99.90;;;;;;5007641;28;20034;-65
2022/12/14 12:15:42;;;;;;;98.30;34.15;;;-0.80;99.90;;;;;;5024954;28;20113;-66
2022/12/14 12:18:30;;;;;;;95.47;32.60;;;-0.60;99.90;;;;;;4993382;28;20550;-63
2022/12/14 12:21:14;;;;;;;72.30;28.10;;;-0.60;99.90;;;;;;5003111;28;20033;-63
2022/12/14 12:23:40;;;;;;;74.30;27.98;;;-0.70;99.90;;;;;;5030423;28;20084;-65
2022/12/14 12:26:17;;;;;;;81.03;30.25;;;-0.70;99.90;;;;;;5011582;28;20452;-63
2022/12/14 12:28:49;;;;;;;78.50;29.17;;;-0.60;99.90;;;;;;5009082;28;20030;-65
2022/12/14 12:31:21;;;;;;;66.38;26.17;;;-0.50;99.90;;;;;;5006854;28;20037;-66
2022/12/14 12:33:56;;;;;;;78.25;28.73;;;-0.50;99.90;;;;;;5017519;28;20271;-66
2022/12/14 12:36:23;;;;;;;74.40;28.48;;;-0.40;99.90;;;;;;5011245;28;20034;-65
2022/12/14 12:39:06;;;;;;;73.70;27.25;;;-0.30;99.90;;;;;;5008499;28;20037;-65
2022/12/14 12:41:55;;;;;;;75.07;27.10;;;-0.30;99.90;;;;;;5010130;28;20475;-66
2022/12/14 12:44:42;;;;;;;72.05;28.00;;;-0.30;99.90;;;;;;5006946;28;20060;-65
2022/12/14 12:47:21;;;;;;;69.97;27.95;;;-0.10;99.90;;;;;;5010140;28;20033;-65
2022/12/14 12:49:49;;;;;;;70.72;26.80;;;0.10;99.90;;;;;;5008281;28;20040;-66
2022/12/14 12:52:23;;;;;;;69.43;27.58;;;0.20;99.90;;;;;;5009241;28;20525;-69
2022/12/14 12:55:15;;;;;;;73.55;26.27;;;0.30;99.90;;;;;;4992187;28;20514;-65
2022/12/14 12:57:44;;;;;;;69.13;26.63;;;0.30;99.90;;;;;;5008411;28;20030;-64
2022/12/14 13:00:24;;;;;;;68.82;27.83;;;0.30;99.90;;;;;;5009542;28;20037;-65
2022/12/14 13:02:58;;;;;;;76.88;28.20;;;0.30;99.90;;;;;;5012704;28;20033;-66
2022/12/14 13:05:26;;;;;;;73.88;28.08;;;0.40;99.90;;;;;;5007889;28;20042;-65
2022/12/14 13:07:57;;;;;;;71.43;27.88;;;0.50;99.90;;;;;;5010184;28;20025;-62
2022/12/14 13:10:31;;;;;;;66.10;26.20;;;0.50;99.90;;;;;;4998917;28;20103;-64